x

Monterey - 27nm Wnw Of Monterey, Ca (46042) Wave Buoy

1:50am - Mon 27th Feb 2017 All times are PST. -8 hours from GMT.

  • Sig Wave height 7.2ft
  • Swell Direction
  • Peak Period 17s
  • Average Period 9s
  • Wind
    11mph, 13mph gusts
  • Sea Temp 55°f
  • Air Temp 50°f
  • Sea Pressure 1013.6mb
  • Monterey - 27nm Wnw Of Monterey, Ca
  • Monterey - 27nm Wnw Of Monterey, Ca

More Historic Weather Station data

Upgrade to MSW Pro to gain access to the past 30 days of data for over 8000 Wavebouys and Weather Stations around the globe.

Join Pro

Comparision Forecast

View Surf forecast
   
Mon 02/27 1:50am 7ft 17s 9s 11 13 mph 1013.6mb 55f 50f
12:50am 6.5ft 17s 9s 18 25 mph 1013.6mb 55f 49f
Sun 02/26 11:50pm 7ft 16s 9s 9 13 mph 1013.6mb 55f 51f
10:50pm 7.5ft 16s 10s 9 13 mph 1013.5mb 55f 51f
9:50pm 6.5ft 16s 8s 9 13 mph 1013.5mb 55f 51f
8:50pm 7ft 16s 9s 11 13 mph 1013.4mb 55f 52f
7:50pm 6.5ft 16s 10s 9 11 mph 1013.6mb 55f 53f
6:50pm 6.5ft 16s 9s 9 13 mph 1013.4mb 56f 52f
5:50pm 6.5ft 16s 9s 11 13 mph 1013.5mb 56f 53f
4:50pm 7ft 16s 10s 13 18 mph 1013.9mb 56f 53f
3:50pm 7ft 17s 10s 11 16 mph 1014.2mb 56f 53f
2:50pm 7ft 17s 10s 9 16 mph 1014.6mb 56f 52f
1:50pm 6.5ft 17s 10s 4 7 mph 1015.2mb 56f 52f
12:50pm 6ft 17s 10s  -  mph 1015.6mb 56f 53f
11:50am 5ft 17s 10s 4 11 mph 1016.1mb 55f 51f
10:50am 6ft 13s 9s 4 13 mph 1015.9mb 55f 52f
9:50am 5ft 14s 9s 9 13 mph 1015.7mb 55f 52f
8:50am 5ft 14s 9s  -  4 mph 1016.1mb 55f 52f
7:50am 5ft 14s 9s 2 9 mph 1016.2mb 55f 52f
6:50am 4.5ft 14s 9s  -  2 mph 1015.7mb 55f 52f
5:50am 4.5ft 14s 9s  -  mph 1015.5mb 55f 51f
4:50am 4.5ft 14s 9s 2 7 mph 1015.2mb 55f 51f
3:50am 4.5ft 14s 10s 7 11 mph 1014.8mb 55f 51f
2:50am 4.5ft 13s 10s 11 13 mph 1015mb 55f 52f
1:50am 4.5ft 14s 10s 13
mph
1015.7mb 55f 52f
12:50am 5ft 14s 11s 11 13 mph 1015.9mb 55f 51f
Sat 02/25 11:50pm 4.5ft 14s 11s 2 7 mph 1016.2mb 55f 51f
10:50pm 5ft 15s 11s 11 13 mph 1016.3mb 55f 51f
9:50pm 4.5ft 15s 11s 11 13 mph 1016.3mb 55f 51f
8:50pm 4.5ft 14s 11s 7 13 mph 1015.8mb 55f 51f
7:50pm 5ft 14s 11s  -  mph 1016.5mb 55f 51f
6:50pm 4.5ft 14s 10s  -  mph 1016.8mb 55f 51f
5:50pm 5ft 15s 10s 4 13 mph 1017.4mb 55f 51f
4:50pm 5.5ft 15s 10s 13
mph
1018mb 55f 51f
3:50pm 5.5ft 15s 10s 13
mph
1018.2mb 56f 51f
2:50pm 6.5ft 15s 10s 7 13 mph 1018.2mb 56f 51f
1:50pm 6ft 15s 9s  -  7 mph 1018.2mb 55f 51f
12:50pm 6ft 15s 10s 7 13 mph 1019.7mb 55f 50f
11:50am 6.5ft 15s 10s 13 16 mph 1020.3mb 55f 49f
10:50am 7ft 15s 10s 11 16 mph 1021.2mb 55f 49f
9:50am 6.5ft 15s 10s 13 16 mph 1021.1mb 55f 49f
8:50am 5ft 15s 9s 11 16 mph 1021.4mb 55f 49f
7:50am 6ft 15s 9s 13
mph
1021.6mb 55f 48f
6:50am 5.5ft 15s 8s 11 13 mph 1021.6mb 55f 48f
5:50am 6ft 15s 8s 2 11 mph 1021.7mb 55f 50f
4:50am 6ft 15s 9s 4 13 mph 1021.7mb 55f 50f
3:50am 6.5ft 15s 9s 7 13 mph 1021.8mb 55f 50f
2:50am 6ft 15s 9s 4 13 mph 1022mb 55f 50f
1:50am 5.5ft 15s 9s 9 13 mph 1022.8mb 55f 50f
12:50am 5ft 16s 8s 9 13 mph 1023.4mb 55f 51f
Fri 02/24 11:50pm 6ft 16s 9s 11 16 mph 1023.5mb 55f 50f
10:50pm 5.5ft 16s 8s 13 18 mph 1023.6mb 55f 51f
9:50pm 6ft 16s 8s 13 16 mph 1023.8mb 55f 51f
8:50pm 5ft 16s 8s 13 16 mph 1023.7mb 55f 50f
7:50pm 6ft 16s 8s 13
mph
1023.7mb 55f 50f
6:50pm 6ft 16s 7s 13 16 mph 1023.7mb 55f 50f
5:50pm 6.5ft 17s 7s 13 18 mph 1023.6mb 55f 51f
4:50pm 6.5ft 8s 7s 9 16 mph 1023.8mb 55f 51f
3:50pm 7ft 8s 7s 13 16 mph 1024mb 55f 50f
2:50pm 6.5ft 8s 7s 13 16 mph 1024.4mb 55f 50f
1:50pm 7ft 9s 7s 9 16 mph 1024.7mb 55f 51f
12:50pm 6ft 8s 7s 13 16 mph 1025mb 55f 51f
11:50am 6ft 9s 7s 11 16 mph 1025.6mb 55f 51f
10:50am 6ft 8s 7s 13 16 mph 1025.5mb 55f 51f
9:50am 6ft 8s 7s 11 13 mph 1025.3mb 55f 51f
8:50am 6ft 8s 6s 4 13 mph 1025.1mb 55f 50f
7:50am 6ft 8s 6s 11 13 mph 1024.3mb 55f 51f
6:50am 6ft 9s 6s 9 13 mph 1024mb 55f 50f
5:50am 6ft 8s 6s 13 16 mph 1023.7mb 55f 51f
4:50am 6.5ft 8s 6s 16 22 mph 1023.3mb 55f 50f
3:50am 7ft 8s 6s 13 18 mph 1023.1mb 55f 50f
2:50am 6.5ft 8s 6s 18 22 mph 1023.1mb 55f 51f
1:50am 7ft 8s 6s 20 25 mph 1023.9mb 55f 51f
12:50am 7ft 8s 6s 18 22 mph 1024.3mb 55f 51f
Thu 02/23 11:50pm 6.5ft 8s 6s 18 22 mph 1024mb 55f 51f
10:50pm 7ft 8s 6s 18 22 mph 1023.7mb 55f 51f
9:50pm 7ft 8s 6s 18 22 mph 1023.3mb 55f 51f
8:50pm 8ft 8s 7s 18 25 mph 1023.1mb 55f 50f
7:50pm 7.5ft 8s 6s 20 27 mph 1022.8mb 55f 50f
6:50pm 7ft 8s 6s 22 27 mph 1022.7mb 55f 50f
5:50pm 7.5ft 8s  -  20 25 mph 1022.8mb 55f 50f
4:50pm 7ft 8s 6s 22 27 mph 1022.8mb 55f 50f
3:50pm 8ft 8s 6s 22 27 mph 1023mb 55f 50f
2:50pm 8ft 7s 6s 20 27 mph 1023.1mb 55f 50f
1:50pm 7ft 8s 6s 22 27 mph 1023.2mb 55f 50f
12:50pm 7ft 8s 6s 13 20 mph 1023.8mb 55f 49f
11:50am 7.5ft 8s 6s 20 22 mph 1024mb 55f 49f